Time;durP1;ratioP1;P1;durP2;ratioP2;P2;SDS_P1;SDS_P2;PMS_P1;PMS_P2;Temp;Humidity;BMP_temperature;BMP_pressure;BME280_temperature;BME280_humidity;BME280_pressure;Samples;Min_cycle;Max_cycle;Signal;HPM_P1;HPM_P2
2020/12/21 04:45:12;;;;;;;16.62;8.83;;;;;;;4.47;72.22;102286.30;1701751;81;21135;-47
2020/12/21 04:47:42;;;;;;;15.75;8.75;;;;;;;4.47;72.21;102285.85;1715070;82;21182;-41
2020/12/21 04:50:12;;;;;;;16.67;9.93;;;;;;;4.48;72.15;102282.77;1739863;80;21179;-40
2020/12/21 04:52:50;;;;;;;16.30;10.40;;;;;;;4.48;72.17;102282.31;1724360;81;21170;-42
2020/12/21 04:55:21;;;;;;;16.73;9.33;;;;;;;4.47;72.17;102285.85;1726010;80;21214;-42
2020/12/21 04:58:04;;;;;;;13.68;7.22;;;;;;;4.49;72.12;102284.09;1730351;80;21163;-42
2020/12/21 05:00:35;;;;;;;13.58;8.38;;;;;;;4.50;72.03;102288.47;1727164;80;22010;-42
2020/12/21 05:03:09;;;;;;;13.83;7.72;;;;;;;4.50;71.97;102288.92;1713029;81;21201;-39
2020/12/21 05:05:43;;;;;;;15.60;8.28;;;;;;;4.48;71.98;102286.27;1701516;80;21749;-41
2020/12/21 05:08:22;;;;;;;14.75;7.85;;;;;;;4.50;71.98;102287.16;1714519;81;21159;-39
2020/12/21 05:11:02;;;;;;;14.78;8.55;;;;;;;4.51;72.00;102289.34;1726304;80;21178;-40
2020/12/21 05:13:32;;;;;;;12.98;7.80;;;;;;;4.50;72.00;102284.51;1710128;81;21475;-43
2020/12/21 05:16:00;;;;;;;12.70;8.28;;;;;;;4.49;71.98;102286.73;1727534;80;21141;-40
2020/12/21 05:18:36;;;;;;;14.55;8.33;;;;;;;4.49;71.94;102282.77;1717533;81;21170;-41
2020/12/21 05:21:07;;;;;;;11.08;7.35;;;;;;;4.48;71.88;102283.63;1726128;81;21583;-39
2020/12/21 05:23:35;;;;;;;13.50;7.75;;;;;;;4.48;71.80;102284.08;1711532;80;21181;-40
2020/12/21 05:26:10;;;;;;;12.30;7.65;;;;;;;4.46;71.81;102286.75;1714821;81;21170;-39
2020/12/21 05:28:39;;;;;;;10.98;7.37;;;;;;;4.46;71.79;102283.20;1727965;80;21163;-45
2020/12/21 05:31:08;;;;;;;10.80;6.40;;;;;;;4.47;71.75;102286.30;1710465;81;21236;-39
2020/12/21 05:33:45;;;;;;;10.68;6.75;;;;;;;4.48;71.71;102292.88;1712139;81;21189;-42
2020/12/21 05:36:16;;;;;;;7.83;5.50;;;;;;;4.50;71.62;102288.92;1707279;80;21205;-43
2020/12/21 05:38:58;;;;;;;9.48;5.92;;;;;;;4.49;71.52;102287.18;1718770;81;21183;-43
2020/12/21 05:41:27;;;;;;;7.97;5.50;;;;;;;4.48;71.50;102295.97;1730300;80;21199;-41
2020/12/21 05:43:56;;;;;;;8.28;5.10;;;;;;;4.49;71.41;102292.47;1719299;80;21171;-40
2020/12/21 05:46:26;;;;;;;7.85;5.45;;;;;;;4.48;71.32;102294.65;1731875;80;21171;-42
2020/12/21 05:48:55;;;;;;;7.90;5.60;;;;;;;4.48;71.25;102300.80;1714690;81;21606;-41
2020/12/21 05:51:36;;;;;;;6.97;4.70;;;;;;;4.48;71.23;102295.97;1731833;81;21190;-42
2020/12/21 05:54:05;;;;;;;7.60;5.05;;;;;;;4.47;71.21;102299.52;1706415;80;21253;-42
2020/12/21 05:56:35;;;;;;;7.00;4.67;;;;;;;4.46;71.17;102309.62;1716388;80;21768;-40
2020/12/21 05:59:03;;;;;;;9.65;5.65;;;;;;;4.45;71.19;102303.47;1725736;80;21194;-41
2020/12/21 06:01:31;;;;;;;8.40;5.15;;;;;;;4.45;71.12;102302.59;1732934;80;21171;-41
2020/12/21 06:04:01;;;;;;;6.45;4.62;;;;;;;4.46;71.09;102303.02;1716781;80;21159;-42
2020/12/21 06:06:33;;;;;;;6.28;4.28;;;;;;;4.45;71.08;102303.47;1664320;83;21162;-40
2020/12/21 06:09:03;;;;;;;6.05;4.40;;;;;;;4.45;71.10;102306.11;1731490;80;21114;-42
2020/12/21 06:11:32;;;;;;;6.85;4.55;;;;;;;4.47;71.10;102308.76;1710995;80;21724;-40
2020/12/21 06:14:15;;;;;;;6.47;4.97;;;;;;;4.46;71.06;102306.56;1701121;81;21186;-42
2020/12/21 06:16:43;;;;;;;6.67;5.17;;;;;;;4.44;71.07;102309.66;1706013;81;21179;-41
2020/12/21 06:19:14;;;;;;;7.30;5.20;;;;;;;4.44;71.07;102314.94;1703459;81;21189;-40
2020/12/21 06:24:48;;;;;;;6.08;4.90;;;;;;;4.45;71.14;102321.09;1793437;78;22940;-44
2020/12/21 06:27:18;;;;;;;6.35;4.55;;;;;;;4.41;71.17;102321.98;1737456;81;21168;-44
2020/12/21 06:29:59;;;;;;;6.45;4.37;;;;;;;4.39;71.17;102322.45;1773024;79;21174;-43
2020/12/21 06:32:31;;;;;;;6.58;4.40;;;;;;;4.38;71.18;102320.23;1767599;79;22155;-42
2020/12/21 06:34:59;;;;;;;5.35;3.90;;;;;;;4.37;71.17;102323.77;1722372;81;21169;-47
2020/12/21 06:37:27;;;;;;;6.00;3.50;;;;;;;4.39;71.27;102322.45;1694737;82;21613;-42
2020/12/21 06:40:00;;;;;;;5.70;4.25;;;;;;;4.40;71.22;102318.91;1714739;81;21149;-42
2020/12/21 06:42:29;;;;;;;6.03;4.35;;;;;;;4.40;71.20;102321.11;1733416;81;21197;-45
2020/12/21 06:44:57;;;;;;;7.28;4.08;;;;;;;4.40;71.23;102324.19;1728969;81;21913;-42
2020/12/21 06:47:26;;;;;;;5.20;3.50;;;;;;;4.39;71.19;102322.45;1722869;81;21190;-43
2020/12/21 07:12:20;;;;;;;7.33;4.33;;;;;;;4.29;71.27;102333.04;1720737;81;21554;-44
2020/12/21 07:14:48;;;;;;;6.45;4.70;;;;;;;4.27;71.38;102336.56;1711944;81;21682;-42
2020/12/21 07:17:25;;;;;;;6.90;4.50;;;;;;;4.27;71.44;102335.25;1718519;82;21134;-41
2020/12/21 07:20:04;;;;;;;5.87;4.35;;;;;;;4.27;71.47;102336.56;1723607;81;21152;-43
2020/12/21 07:22:39;;;;;;;6.80;4.67;;;;;;;4.28;71.46;102333.94;1682384;82;21527;-42
2020/12/21 07:25:06;;;;;;;7.28;5.15;;;;;;;4.27;71.52;102330.84;1694135;82;21182;-42
2020/12/21 07:27:34;;;;;;;7.70;5.33;;;;;;;4.30;71.58;102331.27;1703764;80;21385;-42
2020/12/21 07:30:10;;;;;;;7.42;5.22;;;;;;;4.30;71.57;102333.46;1717944;81;21131;-44
2020/12/21 07:32:37;;;;;;;7.28;4.78;;;;;;;4.30;71.53;102331.27;1722336;80;21205;-40
2020/12/21 07:35:05;;;;;;;7.97;5.30;;;;;;;4.31;71.53;102328.64;1724810;81;21153;-42
2020/12/21 07:37:33;;;;;;;8.05;5.00;;;;;;;4.32;71.47;102332.14;1723310;81;21154;-41
2020/12/21 07:40:00;;;;;;;7.17;4.97;;;;;;;4.32;71.40;102326.41;1718687;82;21197;-41
2020/12/21 07:42:30;;;;;;;8.60;5.22;;;;;;;4.32;71.37;102326.41;1719885;81;21232;-41
2020/12/21 07:44:58;;;;;;;7.15;4.67;;;;;;;4.34;71.34;102323.78;1709605;81;21170;-40
2020/12/21 07:47:30;;;;;;;12.43;8.43;;;;;;;4.34;71.38;102327.74;1720800;80;21682;-41
2020/12/21 07:49:58;;;;;;;9.80;5.92;;;;;;;4.31;71.36;102325.99;1726006;80;21181;-42
2020/12/21 07:52:25;;;;;;;8.75;5.95;;;;;;;4.27;71.47;102328.20;1728291;80;21177;-42
2020/12/21 07:54:53;;;;;;;8.88;6.62;;;;;;;4.27;71.57;102322.04;1725009;81;21165;-44
2020/12/21 07:57:20;;;;;;;8.63;5.87;;;;;;;4.24;71.62;102326.89;1716838;81;21162;-42
2020/12/21 07:59:56;;;;;;;8.43;5.80;;;;;;;4.24;71.75;102327.34;1713030;81;21205;-43
2020/12/21 08:02:24;;;;;;;7.25;5.08;;;;;;;4.27;71.81;102326.88;1702937;82;21599;-49
2020/12/21 08:04:52;;;;;;;8.25;5.65;;;;;;;4.31;71.82;102324.67;1728396;80;21187;-41
2020/12/21 08:07:28;;;;;;;6.83;5.03;;;;;;;4.30;71.83;102323.34;1729771;81;21173;-41
2020/12/21 08:09:58;;;;;;;8.93;5.35;;;;;;;4.32;71.93;102318.49;1730348;82;21197;-42
2020/12/21 08:12:31;;;;;;;8.70;6.15;;;;;;;4.34;72.03;102310.58;1722391;82;21149;-41
2020/12/21 08:15:00;;;;;;;8.50;5.35;;;;;;;4.34;71.88;102310.12;1722079;81;21197;-42
2020/12/21 08:17:31;;;;;;;9.28;6.55;;;;;;;4.36;71.95;102314.09;1722462;80;21162;-42
2020/12/21 08:19:59;;;;;;;9.78;6.20;;;;;;;4.39;71.98;102316.72;1721472;81;21119;-42
2020/12/21 08:22:29;;;;;;;8.50;6.28;;;;;;;4.41;71.94;102316.69;1720359;81;21197;-41
2020/12/21 08:25:06;;;;;;;8.65;6.60;;;;;;;4.41;71.97;102321.56;1721233;81;21609;-44
2020/12/21 08:27:44;;;;;;;7.50;5.45;;;;;;;4.42;72.03;102325.95;1704600;82;21152;-43
2020/12/21 08:30:15;;;;;;;7.17;5.28;;;;;;;4.43;72.00;102317.13;1711796;81;21924;-44
2020/12/21 08:32:43;;;;;;;9.35;6.40;;;;;;;4.44;72.09;102320.67;1733924;81;21138;-45
2020/12/21 08:35:10;;;;;;;9.40;6.55;;;;;;;4.43;72.08;102326.37;1725344;81;21125;-41
2020/12/21 08:37:38;;;;;;;7.50;5.15;;;;;;;4.41;72.04;102325.52;1719183;81;21142;-42
2020/12/21 08:40:13;;;;;;;7.67;5.62;;;;;;;4.39;72.00;102327.73;1726264;80;21651;-41
2020/12/21 08:42:41;;;;;;;8.75;6.75;;;;;;;4.37;71.97;102323.77;1727043;81;21162;-41
2020/12/21 08:45:09;;;;;;;10.80;8.03;;;;;;;4.37;72.05;102328.17;1721753;82;21681;-44
2020/12/21 08:47:37;;;;;;;8.38;5.95;;;;;;;4.36;71.98;102330.36;1716931;81;21185;-41
2020/12/21 08:50:06;;;;;;;8.48;6.12;;;;;;;4.34;72.06;102329.94;1720058;81;21155;-44
2020/12/21 08:52:33;;;;;;;9.38;6.25;;;;;;;4.33;72.02;102328.61;1695256;82;21732;-44
2020/12/21 08:55:01;;;;;;;7.47;5.33;;;;;;;4.30;72.01;102334.78;1713040;81;21186;-43
2020/12/21 08:57:30;;;;;;;7.97;5.42;;;;;;;4.28;72.11;102332.61;1733325;80;21177;-41
2020/12/21 08:59:57;;;;;;;6.50;4.67;;;;;;;4.28;72.11;102328.66;1685103;82;21720;-41
2020/12/21 09:02:25;;;;;;;8.98;4.55;;;;;;;4.27;72.15;102327.32;1723292;80;21158;-42
2020/12/21 09:04:53;;;;;;;6.85;4.05;;;;;;;4.28;72.12;102323.38;1727353;81;21167;-43
2020/12/21 09:07:22;;;;;;;6.42;4.37;;;;;;;4.29;72.04;102326.88;1715916;82;21652;-43
2020/12/21 09:09:50;;;;;;;6.62;4.80;;;;;;;4.29;72.11;102322.92;1709585;82;21647;-43
2020/12/21 09:12:17;;;;;;;6.92;4.67;;;;;;;4.30;72.17;102322.02;1726086;81;21170;-43
2020/12/21 09:14:45;;;;;;;6.60;4.75;;;;;;;4.30;72.11;102319.38;1723745;81;22029;-43
2020/12/21 09:17:12;;;;;;;6.20;4.10;;;;;;;4.32;72.12;102318.49;1728702;80;21464;-43
2020/12/21 09:19:40;;;;;;;5.35;3.75;;;;;;;4.33;72.03;102322.00;1722563;81;21142;-43
2020/12/21 09:22:07;;;;;;;4.95;3.37;;;;;;;4.32;71.91;102317.17;1718415;82;21165;-43
2020/12/21 09:24:35;;;;;;;4.90;3.98;;;;;;;4.32;71.88;102318.49;1715836;80;21194;-42
2020/12/21 09:27:02;;;;;;;4.37;2.98;;;;;;;4.31;71.90;102308.83;1733772;80;21118;-42
2020/12/21 09:29:30;;;;;;;10.00;4.22;;;;;;;4.31;71.69;102310.59;1716881;82;21149;-42
2020/12/21 09:31:57;;;;;;;5.55;4.12;;;;;;;4.28;71.68;102307.52;1719889;81;21158;-45
2020/12/21 09:34:25;;;;;;;4.78;3.75;;;;;;;4.26;71.69;102311.05;1723593;81;21181;-44
2020/12/21 09:36:52;;;;;;;5.12;3.87;;;;;;;4.25;71.61;102307.95;1729850;81;21624;-42
2020/12/21 09:39:21;;;;;;;4.97;3.33;;;;;;;4.24;71.55;102303.12;1727383;82;21165;-44
2020/12/21 09:41:49;;;;;;;4.20;3.58;;;;;;;4.23;71.62;102297.38;1722386;81;21174;-43
2020/12/21 09:44:16;;;;;;;6.85;4.65;;;;;;;4.22;71.68;102298.28;1697930;80;21845;-44
2020/12/21 09:46:44;;;;;;;5.28;3.60;;;;;;;4.21;71.79;102300.91;1722809;81;21850;-45
2020/12/21 09:49:11;;;;;;;4.78;3.90;;;;;;;4.21;71.80;102298.27;1688103;83;21163;-42
2020/12/21 09:51:39;;;;;;;5.47;4.20;;;;;;;4.19;71.71;102293.47;1677432;83;21169;-41
2020/12/21 09:54:07;;;;;;;4.53;3.65;;;;;;;4.18;71.76;102295.65;1655957;85;21273;-49
2020/12/21 09:56:34;;;;;;;5.67;3.60;;;;;;;4.16;71.71;102290.39;1730043;80;21164;-52
2020/12/21 09:59:02;;;;;;;4.75;3.60;;;;;;;4.17;71.72;102292.13;1731224;80;21636;-42
2020/12/21 10:01:30;;;;;;;4.75;3.27;;;;;;;4.17;71.69;102285.98;1734283;80;21163;-45
2020/12/21 10:03:59;;;;;;;5.28;3.65;;;;;;;4.18;71.67;102290.36;1730490;80;21429;-42
2020/12/21 10:06:27;;;;;;;5.53;3.80;;;;;;;4.16;71.61;102290.39;1735213;81;21172;-43
2020/12/21 10:08:54;;;;;;;4.55;3.27;;;;;;;4.14;71.59;102284.23;1717344;81;21665;-42
2020/12/21 10:11:22;;;;;;;8.75;4.12;;;;;;;4.14;71.65;102282.04;1724029;82;21153;-41
2020/12/21 10:13:50;;;;;;;6.60;4.08;;;;;;;4.14;71.56;102287.32;1705546;82;21197;-41
2020/12/21 10:16:17;;;;;;;6.08;4.03;;;;;;;4.15;71.55;102289.06;1724584;81;21242;-42
2020/12/21 10:18:45;;;;;;;5.40;4.03;;;;;;;4.14;71.53;102287.32;1718941;81;21193;-42
2020/12/21 10:21:13;;;;;;;6.42;4.37;;;;;;;4.11;71.68;102291.72;1726791;81;21593;-42
2020/12/21 10:23:40;;;;;;;4.90;3.80;;;;;;;4.12;71.57;102288.19;1727745;81;21736;-43
2020/12/21 10:26:08;;;;;;;6.15;4.47;;;;;;;4.10;71.63;102285.98;1723394;80;21194;-42
2020/12/21 10:28:36;;;;;;;7.22;5.78;;;;;;;4.12;71.69;102289.50;1726452;81;21177;-38
2020/12/21 10:31:04;;;;;;;6.83;5.22;;;;;;;4.12;71.73;102285.55;1714999;81;21202;-40
2020/12/21 10:33:32;;;;;;;6.15;4.78;;;;;;;4.12;71.75;102286.86;1709713;82;21202;-39
2020/12/21 10:36:01;;;;;;;7.33;4.65;;;;;;;4.16;71.79;102287.75;1719652;81;21176;-43
2020/12/21 10:38:31;;;;;;;7.23;5.40;;;;;;;4.18;71.84;102286.41;1712945;81;21307;-42
2020/12/21 10:40:59;;;;;;;7.00;5.33;;;;;;;4.18;71.70;102279.80;1730311;82;21133;-42
2020/12/21 10:43:26;;;;;;;10.15;6.45;;;;;;;4.17;71.71;102282.02;1728334;80;21243;-44
2020/12/21 10:45:54;;;;;;;10.08;6.37;;;;;;;4.15;71.76;102283.78;1725526;80;21137;-42
2020/12/21 10:48:22;;;;;;;9.88;7.47;;;;;;;4.11;71.61;102278.52;1733307;81;21283;-61
2020/12/21 10:50:51;;;;;;;9.70;7.05;;;;;;;4.09;71.62;102274.13;1729505;81;21129;-41
2020/12/21 10:53:19;;;;;;;7.90;6.22;;;;;;;4.09;71.70;102276.32;1720424;80;21185;-46
2020/12/21 10:55:53;;;;;;;10.13;6.45;;;;;;;4.11;71.80;102275.00;1718643;82;21146;-46
2020/12/21 10:59:04;;;;;;;10.90;6.58;;;;;;;4.12;71.80;102270.14;1642769;83;21173;-42
2020/12/21 11:01:32;;;;;;;10.68;6.37;;;;;;;4.11;71.79;102271.05;1699126;82;21315;-43
2020/12/21 11:03:59;;;;;;;9.35;6.00;;;;;;;4.09;71.77;102273.68;1723086;81;21174;-42
2020/12/21 11:06:27;;;;;;;9.35;5.42;;;;;;;4.08;71.83;102276.31;1713864;82;21206;-42
2020/12/21 11:08:56;;;;;;;10.80;6.33;;;;;;;4.06;71.76;102275.02;1735347;80;21135;-39
2020/12/21 11:11:27;;;;;;;12.95;7.80;;;;;;;4.05;71.70;102275.88;1714489;80;21174;-41
2020/12/21 11:13:56;;;;;;;16.25;10.35;;;;;;;4.04;71.68;102274.13;1719867;80;21705;-42
2020/12/21 11:16:23;;;;;;;10.90;7.60;;;;;;;4.04;71.62;102278.09;1711638;82;21161;-43
2020/12/21 11:19:36;;;;;;;12.45;8.45;;;;;;;4.01;71.38;102272.83;1722757;81;21186;-42
2020/12/21 11:23:08;;;;;;;16.05;12.98;;;;;;;3.98;71.25;102275.91;1600310;86;21204;-41
2020/12/21 11:26:30;;;;;;;14.05;10.70;;;;;;;3.95;71.35;102277.23;1839407;77;23542;-39
2020/12/21 11:28:57;;;;;;;13.78;11.50;;;;;;;3.89;71.31;102272.86;1792504;77;21147;-45
2020/12/21 11:31:25;;;;;;;29.32;26.07;;;;;;;3.88;71.18;102276.36;1817831;77;21636;-42
2020/12/21 11:33:52;;;;;;;40.17;36.00;;;;;;;3.86;71.33;102268.47;1803953;78;21141;-43
2020/12/21 11:36:20;;;;;;;23.10;18.95;;;;;;;3.87;71.28;102270.21;1792375;77;21144;-42
2020/12/21 11:38:47;;;;;;;16.95;12.98;;;;;;;3.89;71.42;102263.63;1794061;78;21133;-42
2020/12/21 11:41:15;;;;;;;21.10;15.20;;;;;;;3.94;71.57;102271.09;1796025;78;21161;-42
2020/12/21 11:43:42;;;;;;;11.12;7.22;;;;;;;3.97;71.47;102276.80;1792560;78;21168;-43
2020/12/21 11:46:12;;;;;;;10.93;8.03;;;;;;;3.98;71.48;102276.80;1793952;78;21616;-42
2020/12/21 11:48:40;;;;;;;12.40;8.28;;;;;;;4.01;71.52;102273.28;1804129;78;21149;-45
2020/12/21 11:51:07;;;;;;;9.48;7.22;;;;;;;4.04;71.53;102272.81;1801721;78;21161;-41
2020/12/21 11:53:35;;;;;;;10.20;6.53;;;;;;;4.09;71.55;102270.17;1797255;78;21129;-42
2020/12/21 11:56:03;;;;;;;11.20;7.12;;;;;;;4.13;71.56;102266.61;1791361;78;21133;-46
2020/12/21 11:58:31;;;;;;;10.40;7.00;;;;;;;4.16;71.28;102272.32;1803459;78;21195;-42
2020/12/21 12:00:58;;;;;;;12.05;7.70;;;;;;;4.18;71.20;102278.03;1788815;78;21126;-43
2020/12/21 12:03:27;;;;;;;10.78;7.70;;;;;;;4.20;71.16;102276.27;1796074;78;21141;-42
2020/12/21 12:05:54;;;;;;;12.10;7.62;;;;;;;4.22;71.02;102271.00;1793211;78;21209;-42
2020/12/21 12:08:22;;;;;;;12.25;7.03;;;;;;;4.22;70.88;102271.87;1790823;78;21611;-43
2020/12/21 12:10:49;;;;;;;12.18;7.75;;;;;;;4.21;70.81;102271.45;1784540;78;21609;-41
2020/12/21 12:13:16;;;;;;;13.05;7.95;;;;;;;4.19;70.73;102267.05;1808088;78;21696;-41
2020/12/21 12:15:44;;;;;;;12.25;7.15;;;;;;;4.18;70.65;102264.83;1755724;79;21173;-42
2020/12/21 12:18:14;;;;;;;14.83;8.90;;;;;;;4.18;70.54;102267.92;1803464;78;21137;-43
2020/12/21 12:20:42;;;;;;;12.75;8.58;;;;;;;4.18;70.48;102270.56;1757417;80;21185;-42
2020/12/21 12:23:10;;;;;;;13.30;8.30;;;;;;;4.16;70.36;102271.00;1764023;79;21138;-41
2020/12/21 12:25:37;;;;;;;12.90;7.33;;;;;;;4.16;70.32;102271.91;1768862;79;21173;-42
2020/12/21 12:28:05;;;;;;;12.82;7.58;;;;;;;4.17;70.29;102274.09;1803112;78;21156;-43
2020/12/21 12:30:33;;;;;;;12.78;7.87;;;;;;;4.16;70.27;102270.59;1806972;78;21145;-43
2020/12/21 12:33:00;;;;;;;12.63;8.23;;;;;;;4.16;70.32;102273.23;1801587;78;21133;-41
2020/12/21 12:35:28;;;;;;;11.68;7.58;;;;;;;4.19;70.33;102276.30;1788060;78;21177;-41
2020/12/21 12:37:55;;;;;;;12.58;7.92;;;;;;;4.22;70.33;102276.28;1787907;78;21144;-41
2020/12/21 12:40:23;;;;;;;12.63;7.00;;;;;;;4.22;70.32;102278.47;1785955;78;21169;-40
2020/12/21 12:42:51;;;;;;;14.78;8.40;;;;;;;4.22;70.19;102273.19;1770000;79;21193;-41
2020/12/21 12:45:18;;;;;;;12.23;7.87;;;;;;;4.21;70.01;102270.55;1765140;79;21194;-42
2020/12/21 12:47:46;;;;;;;12.78;7.22;;;;;;;4.21;69.86;102272.77;1798739;78;21146;-43
2020/12/21 12:50:13;;;;;;;13.08;8.10;;;;;;;4.22;69.56;102278.92;1772019;79;21181;-44
2020/12/21 12:52:42;;;;;;;15.18;9.00;;;;;;;4.17;69.50;102278.93;1764457;79;21158;-41
2020/12/21 12:55:10;;;;;;;15.23;9.58;;;;;;;4.16;69.37;102277.19;1762460;79;21129;-42
2020/12/21 12:57:37;;;;;;;16.27;10.23;;;;;;;4.16;69.23;102277.61;1764559;79;21143;-42
2020/12/21 13:00:10;;;;;;;16.07;11.10;;;;;;;4.14;69.11;102279.40;1761631;79;21240;-42
2020/12/21 13:02:38;;;;;;;17.65;10.93;;;;;;;4.11;68.79;102282.92;1752151;79;21150;-43
2020/12/21 13:05:06;;;;;;;15.55;9.35;;;;;;;4.08;68.74;102281.59;1759139;79;21545;-44
2020/12/21 13:07:33;;;;;;;13.98;9.45;;;;;;;4.05;68.66;102277.64;1763189;79;21633;-41
2020/12/21 13:10:01;;;;;;;14.00;8.55;;;;;;;4.00;68.64;102275.02;1776534;78;21157;-42
2020/12/21 13:12:28;;;;;;;15.32;9.55;;;;;;;3.96;68.41;102286.94;1769432;79;21600;-41
2020/12/21 13:14:56;;;;;;;12.73;8.35;;;;;;;3.93;68.28;102286.92;1778847;78;21628;-41
2020/12/21 13:17:23;;;;;;;16.48;9.20;;;;;;;3.90;68.24;102286.48;1767097;80;21176;-42
2020/12/21 13:19:51;;;;;;;13.32;7.55;;;;;;;3.89;68.22;102293.53;1766915;79;21136;-43
2020/12/21 13:22:19;;;;;;;12.58;7.85;;;;;;;3.89;68.09;102295.30;1766533;79;21191;-42
2020/12/21 13:24:47;;;;;;;12.15;8.13;;;;;;;3.88;67.87;102293.11;1775648;78;21159;-44
2020/12/21 13:27:15;;;;;;;11.78;7.28;;;;;;;3.88;67.68;102304.08;1804826;77;21149;-43
2020/12/21 13:29:42;;;;;;;11.68;7.17;;;;;;;3.86;67.59;102298.82;1754057;80;21177;-42
2020/12/21 13:32:10;;;;;;;10.08;6.75;;;;;;;3.84;67.40;102299.71;1756425;80;21170;-40
2020/12/21 13:34:38;;;;;;;8.53;6.28;;;;;;;3.82;67.14;102296.19;1755914;80;21137;-41
2020/12/21 13:37:07;;;;;;;8.68;5.70;;;;;;;3.79;67.05;102294.44;1770024;79;21566;-42
2020/12/21 13:39:35;;;;;;;8.90;6.15;;;;;;;3.78;67.00;102293.10;1770912;79;21170;-41
2020/12/21 13:42:04;;;;;;;7.42;5.17;;;;;;;3.78;66.94;102294.42;1767413;79;21189;-41
2020/12/21 13:44:32;;;;;;;8.58;6.03;;;;;;;3.77;66.80;102295.31;1772606;80;21629;-43
2020/12/21 13:47:00;;;;;;;11.75;6.10;;;;;;;3.76;66.49;102293.12;1763718;80;21626;-42
2020/12/21 13:49:27;;;;;;;12.45;7.85;;;;;;;3.74;66.55;102294.01;1763243;79;21682;-42
2020/12/21 13:51:55;;;;;;;11.70;7.03;;;;;;;3.69;66.56;102296.20;1789433;78;21612;-42
2020/12/21 13:54:23;;;;;;;8.95;6.05;;;;;;;3.64;66.59;102299.28;1800932;78;21682;-42
2020/12/21 13:56:50;;;;;;;9.08;5.97;;;;;;;3.64;66.63;102291.82;1768619;80;21785;-43
2020/12/21 13:59:18;;;;;;;10.40;5.75;;;;;;;3.64;66.57;102290.05;1768553;80;21150;-42
2020/12/21 14:01:45;;;;;;;8.83;5.67;;;;;;;3.63;66.57;102291.39;1768565;79;21715;-43
2020/12/21 14:04:13;;;;;;;10.70;6.55;;;;;;;3.61;66.53;102290.51;1761656;79;21569;-42
2020/12/21 14:10:32;;;;;;;8.18;5.70;;;;;;;3.51;66.35;102293.59;1757787;79;21292;-44
2020/12/21 14:12:59;;;;;;;7.70;5.42;;;;;;;3.44;66.44;102290.06;1759152;79;21138;-44
2020/12/21 14:15:27;;;;;;;7.85;5.10;;;;;;;3.40;66.43;102292.28;1769389;79;21141;-42
2020/12/21 14:17:54;;;;;;;7.03;4.90;;;;;;;3.37;66.51;102288.75;1747608;79;21185;-41
2020/12/21 14:20:22;;;;;;;8.78;4.95;;;;;;;3.34;66.52;102288.75;1762897;79;21097;-45
2020/12/21 14:22:49;;;;;;;7.40;5.17;;;;;;;3.30;66.50;102291.84;1774119;79;21146;-42
2020/12/21 14:25:17;;;;;;;7.92;5.15;;;;;;;3.25;66.46;102288.30;1766107;79;21145;-43
2020/12/21 14:27:44;;;;;;;8.68;5.83;;;;;;;3.24;66.58;102284.79;1767954;79;21498;-42
2020/12/21 14:30:12;;;;;;;9.25;4.42;;;;;;;3.22;66.47;102284.34;1764512;80;21724;-42
2020/12/21 14:32:39;;;;;;;7.20;4.58;;;;;;;3.20;66.54;102286.09;1767258;79;21657;-41
2020/12/21 14:35:07;;;;;;;8.55;5.90;;;;;;;3.18;66.56;102292.71;1765187;79;21593;-42
2020/12/21 14:37:34;;;;;;;6.70;4.15;;;;;;;3.15;66.59;102291.81;1774252;79;21142;-42
2020/12/21 14:40:02;;;;;;;8.50;5.20;;;;;;;3.13;66.59;102296.23;1753657;79;21606;-43
2020/12/21 14:42:29;;;;;;;8.25;5.60;;;;;;;3.09;66.65;102288.73;1744261;80;21138;-43
2020/12/21 14:44:57;;;;;;;7.97;5.42;;;;;;;3.07;66.55;102291.80;1757395;79;21176;-41
2020/12/21 14:47:24;;;;;;;7.33;5.25;;;;;;;3.07;66.67;102290.93;1783535;78;21130;-44
2020/12/21 14:49:52;;;;;;;7.62;5.30;;;;;;;3.05;66.44;102292.27;1752774;79;21209;-43
2020/12/21 14:52:20;;;;;;;8.43;5.45;;;;;;;3.02;66.61;102297.51;1757142;79;21197;-44
2020/12/21 14:54:47;;;;;;;8.03;5.12;;;;;;;3.00;66.44;102288.75;1773527;78;21110;-44
2020/12/21 14:57:15;;;;;;;7.95;5.17;;;;;;;2.99;66.52;102295.75;1763583;79;21170;-42
2020/12/21 14:59:43;;;;;;;8.05;5.37;;;;;;;2.98;66.55;102298.41;1750547;79;21158;-42
2020/12/21 15:02:10;;;;;;;8.70;5.75;;;;;;;2.97;66.55;102286.98;1785178;78;21162;-43
2020/12/21 15:04:38;;;;;;;8.43;5.50;;;;;;;2.98;66.62;102291.81;1757206;79;21138;-41
2020/12/21 15:07:05;;;;;;;9.58;5.83;;;;;;;2.95;66.62;102290.05;1770894;79;21181;-41
2020/12/21 15:09:34;;;;;;;8.18;5.60;;;;;;;2.93;66.65;102293.56;1748372;79;21244;-41
2020/12/21 15:12:01;;;;;;;8.53;5.42;;;;;;;2.86;66.56;102293.10;1772886;79;21146;-42
2020/12/21 15:14:29;;;;;;;8.33;5.70;;;;;;;2.85;66.58;102293.96;1743493;79;21183;-39
2020/12/21 15:16:59;;;;;;;6.78;4.78;;;;;;;2.83;66.60;102301.88;1764867;79;21615;-42
2020/12/21 15:19:26;;;;;;;7.33;4.90;;;;;;;2.78;66.62;102299.67;1768126;79;21142;-42
2020/12/21 15:21:54;;;;;;;7.60;4.62;;;;;;;2.76;66.46;102300.10;1756001;79;21154;-43
2020/12/21 15:24:21;;;;;;;6.53;4.97;;;;;;;2.73;66.49;102307.56;1767586;80;21300;-42
2020/12/21 15:26:49;;;;;;;8.28;5.10;;;;;;;2.71;66.52;102300.09;1779466;78;21160;-43
2020/12/21 15:29:16;;;;;;;6.67;4.95;;;;;;;2.70;66.62;102300.97;1785957;79;21688;-42
2020/12/21 15:31:46;;;;;;;7.22;5.25;;;;;;;2.65;66.57;102296.12;1791682;78;21130;-43
2020/12/21 15:34:13;;;;;;;7.75;5.75;;;;;;;2.62;66.42;102301.80;1793649;78;21189;-43
2020/12/21 15:36:45;;;;;;;7.78;5.35;;;;;;;2.57;66.42;102295.20;1763172;79;21129;-42
2020/12/21 15:39:13;;;;;;;6.33;4.53;;;;;;;2.55;66.26;102299.16;1761867;80;21278;-43
2020/12/21 15:41:42;;;;;;;8.35;6.00;;;;;;;2.55;66.08;102298.30;1762545;80;21169;-41
2020/12/21 15:44:10;;;;;;;7.75;5.83;;;;;;;2.54;66.23;102306.61;1762256;80;21161;-41
2020/12/21 15:46:38;;;;;;;7.78;5.30;;;;;;;2.51;66.34;102301.33;1760480;80;21185;-41
2020/12/21 15:49:06;;;;;;;6.37;4.37;;;;;;;2.49;66.25;102303.08;1743538;80;21189;-45
2020/12/21 15:51:33;;;;;;;7.40;5.33;;;;;;;2.48;66.36;102294.75;1761961;79;21158;-44
2020/12/21 15:54:00;;;;;;;9.20;5.05;;;;;;;2.47;66.16;102298.27;1766927;79;21158;-42
2020/12/21 15:56:28;;;;;;;8.00;5.50;;;;;;;2.45;66.23;102296.50;1766165;80;21131;-42
2020/12/21 15:58:55;;;;;;;6.65;4.72;;;;;;;2.44;66.22;102297.36;1768392;79;21123;-43
2020/12/21 16:01:23;;;;;;;7.50;5.25;;;;;;;2.44;66.26;102298.23;1747314;80;21164;-42
2020/12/21 16:03:50;;;;;;;6.45;4.55;;;;;;;2.42;66.25;102298.69;1757816;80;21181;-42
2020/12/21 16:06:17;;;;;;;7.47;5.22;;;;;;;2.40;66.25;102292.53;1762062;80;21162;-43
2020/12/21 16:08:45;;;;;;;6.25;4.70;;;;;;;2.40;66.20;102299.11;1756297;80;21170;-43
2020/12/21 16:11:13;;;;;;;6.03;4.83;;;;;;;2.37;65.99;102297.34;1768482;80;21566;-42
2020/12/21 16:13:40;;;;;;;6.15;4.75;;;;;;;2.34;65.91;102294.70;1751480;80;21480;-43
2020/12/21 16:16:08;;;;;;;5.45;4.55;;;;;;;2.29;65.77;102292.49;1763051;79;21594;-43
2020/12/21 16:18:36;;;;;;;4.90;3.65;;;;;;;2.25;65.68;102295.10;1755112;79;21691;-43
2020/12/21 16:21:04;;;;;;;4.97;4.15;;;;;;;2.19;65.50;102293.73;1761355;79;21599;-43
2020/12/21 16:23:32;;;;;;;5.67;3.62;;;;;;;2.17;65.36;102292.44;1757800;79;21526;-43
2020/12/21 16:25:59;;;;;;;4.75;3.70;;;;;;;2.13;65.24;102299.86;1742125;80;21589;-42
2020/12/21 16:28:27;;;;;;;5.20;4.25;;;;;;;2.11;65.26;102293.25;1767186;79;21502;-43
2020/12/21 16:30:54;;;;;;;4.97;3.85;;;;;;;2.10;65.31;102296.77;1769559;79;21153;-53
2020/12/21 16:33:22;;;;;;;4.55;3.27;;;;;;;2.07;65.06;102294.13;1768455;79;21176;-44
2020/12/21 16:35:52;;;;;;;5.85;4.33;;;;;;;2.07;64.88;102297.20;1761351;79;21129;-42
2020/12/21 16:38:19;;;;;;;5.17;4.35;;;;;;;2.06;64.76;102294.98;1762572;79;21456;-45
2020/12/21 16:41:05;;;;;;;4.80;3.75;;;;;;;2.07;64.69;102298.52;1763046;79;21111;-46
2020/12/21 16:43:52;;;;;;;5.05;3.80;;;;;;;2.07;64.62;102296.77;1753187;79;21617;-44
2020/12/21 16:46:23;;;;;;;4.80;3.77;;;;;;;2.07;64.32;102295.89;1735740;80;21155;-44
2020/12/21 16:48:50;;;;;;;4.97;3.87;;;;;;;2.02;64.27;102304.20;1745614;79;21153;-43
2020/12/21 16:51:18;;;;;;;5.33;4.42;;;;;;;1.97;64.36;102308.11;1768734;79;21149;-43
2020/12/21 16:53:45;;;;;;;7.15;4.33;;;;;;;1.94;64.20;102304.13;1750377;79;21617;-43